sensor_id;sensor_type;location;lat;lon;timestamp;temperature;humidity
9403;DHT22;4741;49.834;10.740;2023-08-07T00:07:36;11.70;99.90
9403;DHT22;4741;49.834;10.740;2023-08-07T00:10:05;12.60;99.90
9403;DHT22;4741;49.834;10.740;2023-08-07T00:12:32;11.70;99.90
9403;DHT22;4741;49.834;10.740;2023-08-07T00:14:59;11.70;99.90
9403;DHT22;4741;49.834;10.740;2023-08-07T00:17:27;11.60;99.90
9403;DHT22;4741;49.834;10.740;2023-08-07T00:19:53;11.50;99.90
9403;DHT22;4741;49.834;10.740;2023-08-07T00:22:21;11.70;99.90
9403;DHT22;4741;49.834;10.740;2023-08-07T00:24:47;11.50;99.90
9403;DHT22;4741;49.834;10.740;2023-08-07T00:27:14;11.70;99.90
9403;DHT22;4741;49.834;10.740;2023-08-07T00:29:41;11.70;99.90
9403;DHT22;4741;49.834;10.740;2023-08-07T00:32:07;11.70;99.90
9403;DHT22;4741;49.834;10.740;2023-08-07T00:34:35;11.60;99.90
9403;DHT22;4741;49.834;10.740;2023-08-07T00:37:01;11.60;99.90
9403;DHT22;4741;49.834;10.740;2023-08-07T00:39:28;11.70;99.90
9403;DHT22;4741;49.834;10.740;2023-08-07T00:41:55;11.80;99.90
9403;DHT22;4741;49.834;10.740;2023-08-07T00:44:21;11.60;99.90
9403;DHT22;4741;49.834;10.740;2023-08-07T00:46:50;11.60;99.90
9403;DHT22;4741;49.834;10.740;2023-08-07T00:49:17;11.50;99.90
9403;DHT22;4741;49.834;10.740;2023-08-07T00:51:44;11.50;99.90
9403;DHT22;4741;49.834;10.740;2023-08-07T00:54:11;11.60;99.90
9403;DHT22;4741;49.834;10.740;2023-08-07T00:56:41;11.70;99.90
9403;DHT22;4741;49.834;10.740;2023-08-07T00:59:07;11.60;99.90
9403;DHT22;4741;49.834;10.740;2023-08-07T01:01:34;11.60;99.90
9403;DHT22;4741;49.834;10.740;2023-08-07T01:04:01;11.70;99.90
9403;DHT22;4741;49.834;10.740;2023-08-07T01:06:27;11.40;99.90
9403;DHT22;4741;49.834;10.740;2023-08-07T01:08:54;11.30;99.90
9403;DHT22;4741;49.834;10.740;2023-08-07T01:14:32;11.60;99.90
9403;DHT22;4741;49.834;10.740;2023-08-07T01:16:42;11.60;99.90
9403;DHT22;4741;49.834;10.740;2023-08-07T01:19:14;11.60;99.90
9403;DHT22;4741;49.834;10.740;2023-08-07T01:21:47;11.60;99.90
9403;DHT22;4741;49.834;10.740;2023-08-07T01:24:14;11.60;99.90
9403;DHT22;4741;49.834;10.740;2023-08-07T01:26:42;11.60;99.90
9403;DHT22;4741;49.834;10.740;2023-08-07T01:29:22;11.60;99.90
9403;DHT22;4741;49.834;10.740;2023-08-07T01:31:50;11.60;99.90
9403;DHT22;4741;49.834;10.740;2023-08-07T01:34:19;11.60;99.90
9403;DHT22;4741;49.834;10.740;2023-08-07T01:36:48;11.60;99.90
9403;DHT22;4741;49.834;10.740;2023-08-07T01:39:15;11.50;99.90
9403;DHT22;4741;49.834;10.740;2023-08-07T01:41:43;11.50;99.90
9403;DHT22;4741;49.834;10.740;2023-08-07T01:44:09;11.40;99.90
9403;DHT22;4741;49.834;10.740;2023-08-07T01:46:36;11.30;99.90
9403;DHT22;4741;49.834;10.740;2023-08-07T01:49:03;11.50;99.90
9403;DHT22;4741;49.834;10.740;2023-08-07T01:51:29;11.20;99.90
9403;DHT22;4741;49.834;10.740;2023-08-07T01:53:56;12.50;99.90
9403;DHT22;4741;49.834;10.740;2023-08-07T01:56:23;10.90;99.90
9403;DHT22;4741;49.834;10.740;2023-08-07T01:58:49;11.00;99.90
9403;DHT22;4741;49.834;10.740;2023-08-07T02:01:16;11.30;99.90
9403;DHT22;4741;49.834;10.740;2023-08-07T02:03:43;11.30;99.90
9403;DHT22;4741;49.834;10.740;2023-08-07T02:06:09;10.80;99.90
9403;DHT22;4741;49.834;10.740;2023-08-07T02:08:36;11.20;99.90
9403;DHT22;4741;49.834;10.740;2023-08-07T02:11:03;11.00;99.90
9403;DHT22;4741;49.834;10.740;2023-08-07T02:13:30;10.60;99.90
9403;DHT22;4741;49.834;10.740;2023-08-07T02:15:56;10.20;99.90
9403;DHT22;4741;49.834;10.740;2023-08-07T02:18:23;11.20;99.90
9403;DHT22;4741;49.834;10.740;2023-08-07T02:20:50;11.20;99.90
9403;DHT22;4741;49.834;10.740;2023-08-07T02:23:16;11.40;99.90
9403;DHT22;4741;49.834;10.740;2023-08-07T02:25:43;11.30;99.90
9403;DHT22;4741;49.834;10.740;2023-08-07T02:28:11;11.20;99.90
9403;DHT22;4741;49.834;10.740;2023-08-07T02:30:38;11.10;99.90
9403;DHT22;4741;49.834;10.740;2023-08-07T02:33:05;10.80;99.90
9403;DHT22;4741;49.834;10.740;2023-08-07T02:35:31;10.30;99.90
9403;DHT22;4741;49.834;10.740;2023-08-07T02:37:58;11.10;99.90
9403;DHT22;4741;49.834;10.740;2023-08-07T02:40:25;13.00;99.90
9403;DHT22;4741;49.834;10.740;2023-08-07T02:42:51;12.30;99.90
9403;DHT22;4741;49.834;10.740;2023-08-07T02:45:18;11.20;99.90
9403;DHT22;4741;49.834;10.740;2023-08-07T02:47:44;11.00;99.90
9403;DHT22;4741;49.834;10.740;2023-08-07T02:50:11;11.10;99.90
9403;DHT22;4741;49.834;10.740;2023-08-07T02:52:38;11.10;99.90
9403;DHT22;4741;49.834;10.740;2023-08-07T02:55:05;10.70;99.90
9403;DHT22;4741;49.834;10.740;2023-08-07T02:57:31;11.20;99.90
9403;DHT22;4741;49.834;10.740;2023-08-07T03:00:04;11.30;99.90
9403;DHT22;4741;49.834;10.740;2023-08-07T03:02:31;11.20;99.90
9403;DHT22;4741;49.834;10.740;2023-08-07T03:04:58;10.70;99.90
9403;DHT22;4741;49.834;10.740;2023-08-07T03:07:24;11.00;99.90
9403;DHT22;4741;49.834;10.740;2023-08-07T03:09:51;11.00;99.90
9403;DHT22;4741;49.834;10.740;2023-08-07T03:12:18;10.90;99.90
9403;DHT22;4741;49.834;10.740;2023-08-07T03:14:44;11.00;99.90
9403;DHT22;4741;49.834;10.740;2023-08-07T03:17:11;10.90;99.90
9403;DHT22;4741;49.834;10.740;2023-08-07T03:19:39;10.90;99.90
9403;DHT22;4741;49.834;10.740;2023-08-07T03:22:06;10.50;99.90
9403;DHT22;4741;49.834;10.740;2023-08-07T03:24:33;10.30;99.90
9403;DHT22;4741;49.834;10.740;2023-08-07T03:26:59;10.70;99.90
9403;DHT22;4741;49.834;10.740;2023-08-07T03:29:26;10.90;99.90
9403;DHT22;4741;49.834;10.740;2023-08-07T03:31:53;10.90;99.90
9403;DHT22;4741;49.834;10.740;2023-08-07T03:34:19;10.50;99.90
9403;DHT22;4741;49.834;10.740;2023-08-07T03:36:46;11.00;99.90
9403;DHT22;4741;49.834;10.740;2023-08-07T03:39:13;10.70;99.90
9403;DHT22;4741;49.834;10.740;2023-08-07T03:41:40;10.90;99.90
9403;DHT22;4741;49.834;10.740;2023-08-07T03:44:07;10.90;99.90
9403;DHT22;4741;49.834;10.740;2023-08-07T03:46:33;10.80;99.90
9403;DHT22;4741;49.834;10.740;2023-08-07T03:49:00;10.90;99.90
9403;DHT22;4741;49.834;10.740;2023-08-07T03:51:27;10.40;99.90
9403;DHT22;4741;49.834;10.740;2023-08-07T03:53:53;10.60;99.90
9403;DHT22;4741;49.834;10.740;2023-08-07T03:56:20;10.50;99.90
9403;DHT22;4741;49.834;10.740;2023-08-07T03:58:46;10.70;99.90
9403;DHT22;4741;49.834;10.740;2023-08-07T04:01:16;10.60;99.90
9403;DHT22;4741;49.834;10.740;2023-08-07T04:03:42;10.60;99.90
9403;DHT22;4741;49.834;10.740;2023-08-07T04:06:09;9.90;99.90
9403;DHT22;4741;49.834;10.740;2023-08-07T04:08:42;10.30;99.90
9403;DHT22;4741;49.834;10.740;2023-08-07T04:11:09;9.80;99.90
9403;DHT22;4741;49.834;10.740;2023-08-07T04:13:36;10.40;99.90
9403;DHT22;4741;49.834;10.740;2023-08-07T04:16:03;10.10;99.90
9403;DHT22;4741;49.834;10.740;2023-08-07T04:18:31;10.90;99.90
9403;DHT22;4741;49.834;10.740;2023-08-07T04:20:58;10.60;99.90
9403;DHT22;4741;49.834;10.740;2023-08-07T04:23:25;10.60;99.90
9403;DHT22;4741;49.834;10.740;2023-08-07T04:25:52;10.60;99.90
9403;DHT22;4741;49.834;10.740;2023-08-07T04:28:19;10.60;99.90
9403;DHT22;4741;49.834;10.740;2023-08-07T04:30:48;10.50;99.90
9403;DHT22;4741;49.834;10.740;2023-08-07T04:33:15;10.40;99.90
9403;DHT22;4741;49.834;10.740;2023-08-07T04:35:42;9.90;99.90
9403;DHT22;4741;49.834;10.740;2023-08-07T04:38:08;10.10;99.90
9403;DHT22;4741;49.834;10.740;2023-08-07T04:40:35;10.60;99.90
9403;DHT22;4741;49.834;10.740;2023-08-07T04:43:02;10.60;99.90
9403;DHT22;4741;49.834;10.740;2023-08-07T04:45:32;10.40;99.90
9403;DHT22;4741;49.834;10.740;2023-08-07T04:47:59;10.80;99.90
9403;DHT22;4741;49.834;10.740;2023-08-07T04:50:26;10.40;99.90
9403;DHT22;4741;49.834;10.740;2023-08-07T04:52:53;10.30;99.90
9403;DHT22;4741;49.834;10.740;2023-08-07T04:55:19;10.60;99.90
9403;DHT22;4741;49.834;10.740;2023-08-07T04:57:46;10.40;99.90
9403;DHT22;4741;49.834;10.740;2023-08-07T05:00:13;10.30;99.90
9403;DHT22;4741;49.834;10.740;2023-08-07T05:02:40;10.90;99.90
9403;DHT22;4741;49.834;10.740;2023-08-07T05:05:07;10.50;99.90
9403;DHT22;4741;49.834;10.740;2023-08-07T05:07:35;11.00;99.90
9403;DHT22;4741;49.834;10.740;2023-08-07T05:10:02;10.40;99.90
9403;DHT22;4741;49.834;10.740;2023-08-07T05:12:29;11.00;99.90
9403;DHT22;4741;49.834;10.740;2023-08-07T05:14:56;10.60;99.90
9403;DHT22;4741;49.834;10.740;2023-08-07T05:17:22;10.40;99.90
9403;DHT22;4741;49.834;10.740;2023-08-07T05:19:49;10.30;99.90
9403;DHT22;4741;49.834;10.740;2023-08-07T05:22:16;10.60;99.90
9403;DHT22;4741;49.834;10.740;2023-08-07T05:24:42;10.60;99.90
9403;DHT22;4741;49.834;10.740;2023-08-07T05:27:11;10.20;99.90
9403;DHT22;4741;49.834;10.740;2023-08-07T05:29:38;11.00;99.90
9403;DHT22;4741;49.834;10.740;2023-08-07T05:32:10;10.50;99.90
9403;DHT22;4741;49.834;10.740;2023-08-07T05:34:37;10.70;99.90
9403;DHT22;4741;49.834;10.740;2023-08-07T05:37:05;10.40;99.90
9403;DHT22;4741;49.834;10.740;2023-08-07T05:39:31;11.20;99.90
9403;DHT22;4741;49.834;10.740;2023-08-07T05:41:58;10.90;99.90
9403;DHT22;4741;49.834;10.740;2023-08-07T05:44:25;10.50;99.90
9403;DHT22;4741;49.834;10.740;2023-08-07T05:46:52;10.70;99.90
9403;DHT22;4741;49.834;10.740;2023-08-07T05:49:18;10.30;99.90
9403;DHT22;4741;49.834;10.740;2023-08-07T05:51:45;9.90;99.90
9403;DHT22;4741;49.834;10.740;2023-08-07T05:54:12;11.30;99.90
9403;DHT22;4741;49.834;10.740;2023-08-07T05:56:40;10.50;99.90
9403;DHT22;4741;49.834;10.740;2023-08-07T05:59:07;9.90;99.90
9403;DHT22;4741;49.834;10.740;2023-08-07T06:01:34;10.30;99.90
9403;DHT22;4741;49.834;10.740;2023-08-07T06:04:00;10.30;99.90
9403;DHT22;4741;49.834;10.740;2023-08-07T06:06:27;10.60;99.90
9403;DHT22;4741;49.834;10.740;2023-08-07T06:09:01;10.80;99.90
9403;DHT22;4741;49.834;10.740;2023-08-07T06:20:17;11.10;99.90
9403;DHT22;4741;49.834;10.740;2023-08-07T06:22:43;11.30;99.90
9403;DHT22;4741;49.834;10.740;2023-08-07T06:25:10;10.40;99.90
9403;DHT22;4741;49.834;10.740;2023-08-07T06:27:37;10.30;99.90
9403;DHT22;4741;49.834;10.740;2023-08-07T06:30:03;10.60;99.90
9403;DHT22;4741;49.834;10.740;2023-08-07T06:32:31;11.20;99.90
9403;DHT22;4741;49.834;10.740;2023-08-07T06:34:57;10.60;99.90
9403;DHT22;4741;49.834;10.740;2023-08-07T06:37:24;10.40;99.90
9403;DHT22;4741;49.834;10.740;2023-08-07T06:39:51;10.60;99.90
9403;DHT22;4741;49.834;10.740;2023-08-07T06:42:18;10.90;99.90
9403;DHT22;4741;49.834;10.740;2023-08-07T06:44:44;10.70;99.90
9403;DHT22;4741;49.834;10.740;2023-08-07T06:47:11;10.40;99.90
9403;DHT22;4741;49.834;10.740;2023-08-07T06:49:38;10.40;99.90
9403;DHT22;4741;49.834;10.740;2023-08-07T06:52:05;10.30;99.90
9403;DHT22;4741;49.834;10.740;2023-08-07T06:54:31;11.10;99.90
9403;DHT22;4741;49.834;10.740;2023-08-07T06:56:58;9.70;99.90
9403;DHT22;4741;49.834;10.740;2023-08-07T06:59:25;10.50;99.90
9403;DHT22;4741;49.834;10.740;2023-08-07T07:01:52;10.40;99.90
9403;DHT22;4741;49.834;10.740;2023-08-07T07:04:19;12.80;99.90
9403;DHT22;4741;49.834;10.740;2023-08-07T07:06:46;11.40;99.90
9403;DHT22;4741;49.834;10.740;2023-08-07T07:09:12;10.80;99.90
9403;DHT22;4741;49.834;10.740;2023-08-07T07:11:43;10.70;99.90
9403;DHT22;4741;49.834;10.740;2023-08-07T07:14:10;10.50;99.90
9403;DHT22;4741;49.834;10.740;2023-08-07T07:16:37;12.00;99.90
9403;DHT22;4741;49.834;10.740;2023-08-07T07:19:05;12.30;99.90
9403;DHT22;4741;49.834;10.740;2023-08-07T07:21:42;11.20;99.90
9403;DHT22;4741;49.834;10.740;2023-08-07T07:24:09;12.10;99.90
9403;DHT22;4741;49.834;10.740;2023-08-07T07:26:35;11.00;99.90
9403;DHT22;4741;49.834;10.740;2023-08-07T07:29:02;11.10;99.90
9403;DHT22;4741;49.834;10.740;2023-08-07T07:31:29;12.40;99.90
9403;DHT22;4741;49.834;10.740;2023-08-07T07:33:56;12.40;99.90
9403;DHT22;4741;49.834;10.740;2023-08-07T07:36:23;11.50;99.90
9403;DHT22;4741;49.834;10.740;2023-08-07T07:38:50;13.20;99.90
9403;DHT22;4741;49.834;10.740;2023-08-07T07:41:16;12.60;99.90
9403;DHT22;4741;49.834;10.740;2023-08-07T07:43:44;11.00;99.90
9403;DHT22;4741;49.834;10.740;2023-08-07T07:48:38;11.70;99.90
9403;DHT22;4741;49.834;10.740;2023-08-07T07:51:04;12.80;99.90
9403;DHT22;4741;49.834;10.740;2023-08-07T07:53:31;12.80;99.90
9403;DHT22;4741;49.834;10.740;2023-08-07T07:55:58;11.80;99.90
9403;DHT22;4741;49.834;10.740;2023-08-07T07:58:25;12.20;99.90
9403;DHT22;4741;49.834;10.740;2023-08-07T08:03:21;11.80;99.90
9403;DHT22;4741;49.834;10.740;2023-08-07T08:05:51;11.60;99.90
9403;DHT22;4741;49.834;10.740;2023-08-07T08:08:18;11.80;99.90
9403;DHT22;4741;49.834;10.740;2023-08-07T08:10:45;11.70;99.90
9403;DHT22;4741;49.834;10.740;2023-08-07T08:13:14;10.60;99.90
9403;DHT22;4741;49.834;10.740;2023-08-07T08:15:41;11.80;99.90
9403;DHT22;4741;49.834;10.740;2023-08-07T08:18:11;12.80;99.90
9403;DHT22;4741;49.834;10.740;2023-08-07T08:20:38;11.80;99.90
9403;DHT22;4741;49.834;10.740;2023-08-07T08:23:05;12.10;99.90
9403;DHT22;4741;49.834;10.740;2023-08-07T08:25:35;12.40;99.90
9403;DHT22;4741;49.834;10.740;2023-08-07T08:28:03;12.30;99.90
9403;DHT22;4741;49.834;10.740;2023-08-07T08:30:30;11.70;99.90
9403;DHT22;4741;49.834;10.740;2023-08-07T08:32:57;11.30;99.90
9403;DHT22;4741;49.834;10.740;2023-08-07T08:35:24;12.20;99.90
9403;DHT22;4741;49.834;10.740;2023-08-07T08:37:54;13.10;99.90
9403;DHT22;4741;49.834;10.740;2023-08-07T08:40:21;12.40;99.90
9403;DHT22;4741;49.834;10.740;2023-08-07T08:42:51;12.90;99.90
9403;DHT22;4741;49.834;10.740;2023-08-07T08:45:24;11.90;99.90
9403;DHT22;4741;49.834;10.740;2023-08-07T08:47:52;11.80;99.90
9403;DHT22;4741;49.834;10.740;2023-08-07T08:50:21;12.90;99.90
9403;DHT22;4741;49.834;10.740;2023-08-07T08:52:48;11.40;99.90
9403;DHT22;4741;49.834;10.740;2023-08-07T08:55:17;12.20;99.90
9403;DHT22;4741;49.834;10.740;2023-08-07T08:57:46;13.40;99.90
9403;DHT22;4741;49.834;10.740;2023-08-07T09:00:13;14.10;99.90
9403;DHT22;4741;49.834;10.740;2023-08-07T09:03:03;12.10;99.90
9403;DHT22;4741;49.834;10.740;2023-08-07T09:05:32;13.40;99.90
9403;DHT22;4741;49.834;10.740;2023-08-07T09:07:59;14.30;99.90
9403;DHT22;4741;49.834;10.740;2023-08-07T09:10:27;10.70;99.90
9403;DHT22;4741;49.834;10.740;2023-08-07T09:13:00;11.00;99.90
9403;DHT22;4741;49.834;10.740;2023-08-07T09:15:28;11.70;99.90
9403;DHT22;4741;49.834;10.740;2023-08-07T09:17:56;10.70;99.90
9403;DHT22;4741;49.834;10.740;2023-08-07T09:20:24;14.00;99.90
9403;DHT22;4741;49.834;10.740;2023-08-07T09:22:51;13.60;99.90
9403;DHT22;4741;49.834;10.740;2023-08-07T09:25:28;13.80;99.90
9403;DHT22;4741;49.834;10.740;2023-08-07T09:27:55;11.90;99.90
9403;DHT22;4741;49.834;10.740;2023-08-07T09:30:26;13.80;99.90
9403;DHT22;4741;49.834;10.740;2023-08-07T09:32:56;11.20;99.90
9403;DHT22;4741;49.834;10.740;2023-08-07T09:35:23;12.00;99.90
9403;DHT22;4741;49.834;10.740;2023-08-07T09:37:50;13.20;99.90
9403;DHT22;4741;49.834;10.740;2023-08-07T09:40:17;13.40;99.90
9403;DHT22;4741;49.834;10.740;2023-08-07T09:42:49;11.80;99.90
9403;DHT22;4741;49.834;10.740;2023-08-07T09:45:20;12.10;99.90
9403;DHT22;4741;49.834;10.740;2023-08-07T09:47:56;11.80;99.90
9403;DHT22;4741;49.834;10.740;2023-08-07T09:50:23;12.60;99.90
9403;DHT22;4741;49.834;10.740;2023-08-07T09:52:50;12.30;99.90
9403;DHT22;4741;49.834;10.740;2023-08-07T09:55:17;13.90;99.90
9403;DHT22;4741;49.834;10.740;2023-08-07T09:57:44;12.20;99.90
9403;DHT22;4741;49.834;10.740;2023-08-07T10:00:11;12.20;99.90
9403;DHT22;4741;49.834;10.740;2023-08-07T10:02:39;12.80;99.90
9403;DHT22;4741;49.834;10.740;2023-08-07T10:05:06;14.40;99.90
9403;DHT22;4741;49.834;10.740;2023-08-07T10:07:35;12.20;99.90
9403;DHT22;4741;49.834;10.740;2023-08-07T10:10:02;13.60;99.90
9403;DHT22;4741;49.834;10.740;2023-08-07T10:12:29;12.40;99.90
9403;DHT22;4741;49.834;10.740;2023-08-07T10:14:56;11.80;99.90
9403;DHT22;4741;49.834;10.740;2023-08-07T10:17:25;14.10;99.90
9403;DHT22;4741;49.834;10.740;2023-08-07T10:19:52;13.30;99.90
9403;DHT22;4741;49.834;10.740;2023-08-07T10:24:47;12.60;99.90
9403;DHT22;4741;49.834;10.740;2023-08-07T10:27:15;13.50;99.90
9403;DHT22;4741;49.834;10.740;2023-08-07T10:29:44;14.00;99.90
9403;DHT22;4741;49.834;10.740;2023-08-07T10:34:38;12.60;99.90
9403;DHT22;4741;49.834;10.740;2023-08-07T10:37:08;13.60;99.90
9403;DHT22;4741;49.834;10.740;2023-08-07T10:39:35;12.80;99.90
9403;DHT22;4741;49.834;10.740;2023-08-07T10:42:02;12.80;99.90
9403;DHT22;4741;49.834;10.740;2023-08-07T10:46:59;12.90;99.90
9403;DHT22;4741;49.834;10.740;2023-08-07T10:49:37;13.60;99.90
9403;DHT22;4741;49.834;10.740;2023-08-07T10:52:07;12.80;99.90
9403;DHT22;4741;49.834;10.740;2023-08-07T10:54:43;13.50;99.90
9403;DHT22;4741;49.834;10.740;2023-08-07T10:57:11;12.80;99.90
9403;DHT22;4741;49.834;10.740;2023-08-07T10:59:43;13.70;99.90
9403;DHT22;4741;49.834;10.740;2023-08-07T11:02:11;14.30;99.90
9403;DHT22;4741;49.834;10.740;2023-08-07T11:04:47;13.60;99.90
9403;DHT22;4741;49.834;10.740;2023-08-07T11:07:27;13.20;99.90
9403;DHT22;4741;49.834;10.740;2023-08-07T11:09:54;13.10;99.90
9403;DHT22;4741;49.834;10.740;2023-08-07T11:12:30;13.30;99.90
9403;DHT22;4741;49.834;10.740;2023-08-07T11:14:57;14.30;99.90
9403;DHT22;4741;49.834;10.740;2023-08-07T11:17:26;13.40;99.90
9403;DHT22;4741;49.834;10.740;2023-08-07T11:19:54;13.60;99.90
9403;DHT22;4741;49.834;10.740;2023-08-07T11:22:21;13.70;99.90
9403;DHT22;4741;49.834;10.740;2023-08-07T11:24:51;12.90;99.90
9403;DHT22;4741;49.834;10.740;2023-08-07T11:27:27;13.50;99.90
9403;DHT22;4741;49.834;10.740;2023-08-07T11:29:56;13.60;99.90
9403;DHT22;4741;49.834;10.740;2023-08-07T11:32:23;14.30;99.90
9403;DHT22;4741;49.834;10.740;2023-08-07T11:34:50;13.80;99.90
9403;DHT22;4741;49.834;10.740;2023-08-07T11:37:18;13.90;99.90
9403;DHT22;4741;49.834;10.740;2023-08-07T11:39:45;14.50;99.90
9403;DHT22;4741;49.834;10.740;2023-08-07T11:42:27;13.50;99.90
9403;DHT22;4741;49.834;10.740;2023-08-07T11:44:54;13.20;99.90
9403;DHT22;4741;49.834;10.740;2023-08-07T11:47:21;13.70;99.90
9403;DHT22;4741;49.834;10.740;2023-08-07T11:49:50;14.80;99.90
9403;DHT22;4741;49.834;10.740;2023-08-07T11:52:18;13.40;99.90
9403;DHT22;4741;49.834;10.740;2023-08-07T11:54:48;13.30;99.90
9403;DHT22;4741;49.834;10.740;2023-08-07T11:57:21;13.40;99.90
9403;DHT22;4741;49.834;10.740;2023-08-07T11:59:51;13.50;99.90
9403;DHT22;4741;49.834;10.740;2023-08-07T12:02:22;13.30;99.90
9403;DHT22;4741;49.834;10.740;2023-08-07T12:04:58;13.20;99.90
9403;DHT22;4741;49.834;10.740;2023-08-07T12:07:26;13.10;99.90
9403;DHT22;4741;49.834;10.740;2023-08-07T12:09:56;14.00;99.90
9403;DHT22;4741;49.834;10.740;2023-08-07T12:12:23;13.80;99.90
9403;DHT22;4741;49.834;10.740;2023-08-07T12:14:54;13.70;99.90
9403;DHT22;4741;49.834;10.740;2023-08-07T12:17:24;13.10;99.90
9403;DHT22;4741;49.834;10.740;2023-08-07T12:22:19;13.00;99.90
9403;DHT22;4741;49.834;10.740;2023-08-07T12:24:46;13.80;99.90
9403;DHT22;4741;49.834;10.740;2023-08-07T12:27:21;13.40;99.90
9403;DHT22;4741;49.834;10.740;2023-08-07T12:29:48;12.80;99.90
9403;DHT22;4741;49.834;10.740;2023-08-07T12:32:18;13.80;99.90
9403;DHT22;4741;49.834;10.740;2023-08-07T12:34:46;13.20;99.90
9403;DHT22;4741;49.834;10.740;2023-08-07T12:37:19;12.60;99.90
9403;DHT22;4741;49.834;10.740;2023-08-07T12:39:47;12.70;99.90
9403;DHT22;4741;49.834;10.740;2023-08-07T12:42:17;13.80;99.90
9403;DHT22;4741;49.834;10.740;2023-08-07T12:44:50;12.60;99.90
9403;DHT22;4741;49.834;10.740;2023-08-07T12:47:19;13.30;99.90
9403;DHT22;4741;49.834;10.740;2023-08-07T12:49:46;12.60;99.90
9403;DHT22;4741;49.834;10.740;2023-08-07T12:52:14;13.50;99.90
9403;DHT22;4741;49.834;10.740;2023-08-07T12:54:41;13.70;99.90
9403;DHT22;4741;49.834;10.740;2023-08-07T12:57:07;14.30;99.90
9403;DHT22;4741;49.834;10.740;2023-08-07T12:59:37;13.20;99.90
9403;DHT22;4741;49.834;10.740;2023-08-07T13:02:04;13.00;99.90
9403;DHT22;4741;49.834;10.740;2023-08-07T13:04:33;13.20;99.90
9403;DHT22;4741;49.834;10.740;2023-08-07T13:07:00;13.70;99.90
9403;DHT22;4741;49.834;10.740;2023-08-07T13:09:28;12.30;99.90
9403;DHT22;4741;49.834;10.740;2023-08-07T13:11:58;13.30;99.90
9403;DHT22;4741;49.834;10.740;2023-08-07T13:14:25;13.30;99.90
9403;DHT22;4741;49.834;10.740;2023-08-07T13:16:52;13.90;99.90
9403;DHT22;4741;49.834;10.740;2023-08-07T13:19:19;14.10;99.90
9403;DHT22;4741;49.834;10.740;2023-08-07T13:21:46;13.70;99.90
9403;DHT22;4741;49.834;10.740;2023-08-07T13:24:13;13.70;99.90
9403;DHT22;4741;49.834;10.740;2023-08-07T13:26:43;13.60;99.90
9403;DHT22;4741;49.834;10.740;2023-08-07T13:29:11;14.10;99.90
9403;DHT22;4741;49.834;10.740;2023-08-07T13:31:40;13.20;99.90
9403;DHT22;4741;49.834;10.740;2023-08-07T13:34:17;13.80;99.90
9403;DHT22;4741;49.834;10.740;2023-08-07T13:36:45;13.10;99.90
9403;DHT22;4741;49.834;10.740;2023-08-07T13:39:12;13.40;99.90
9403;DHT22;4741;49.834;10.740;2023-08-07T13:41:40;14.10;99.90
9403;DHT22;4741;49.834;10.740;2023-08-07T13:44:09;14.20;99.90
9403;DHT22;4741;49.834;10.740;2023-08-07T13:46:40;13.00;99.90
9403;DHT22;4741;49.834;10.740;2023-08-07T13:49:07;14.40;99.90
9403;DHT22;4741;49.834;10.740;2023-08-07T13:51:33;13.00;99.90
9403;DHT22;4741;49.834;10.740;2023-08-07T13:54:00;13.40;99.90
9403;DHT22;4741;49.834;10.740;2023-08-07T13:56:30;14.40;99.90
9403;DHT22;4741;49.834;10.740;2023-08-07T13:59:00;13.70;99.90
9403;DHT22;4741;49.834;10.740;2023-08-07T14:01:33;13.60;99.90
9403;DHT22;4741;49.834;10.740;2023-08-07T14:04:04;14.80;99.90
9403;DHT22;4741;49.834;10.740;2023-08-07T14:06:31;13.80;99.90
9403;DHT22;4741;49.834;10.740;2023-08-07T14:08:58;14.30;99.90
9403;DHT22;4741;49.834;10.740;2023-08-07T14:11:25;15.40;99.90
9403;DHT22;4741;49.834;10.740;2023-08-07T14:13:57;14.70;99.90
9403;DHT22;4741;49.834;10.740;2023-08-07T14:16:24;13.70;99.90
9403;DHT22;4741;49.834;10.740;2023-08-07T14:18:52;14.70;99.90
9403;DHT22;4741;49.834;10.740;2023-08-07T14:21:19;15.40;99.90
9403;DHT22;4741;49.834;10.740;2023-08-07T14:23:49;14.60;99.90
9403;DHT22;4741;49.834;10.740;2023-08-07T14:31:12;14.40;99.90
9403;DHT22;4741;49.834;10.740;2023-08-07T14:33:39;14.40;99.90
9403;DHT22;4741;49.834;10.740;2023-08-07T14:36:06;15.30;99.90
9403;DHT22;4741;49.834;10.740;2023-08-07T14:38:33;15.10;99.90
9403;DHT22;4741;49.834;10.740;2023-08-07T14:41:00;14.80;99.90
9403;DHT22;4741;49.834;10.740;2023-08-07T14:43:29;16.00;99.90
9403;DHT22;4741;49.834;10.740;2023-08-07T14:45:59;15.70;99.90
9403;DHT22;4741;49.834;10.740;2023-08-07T14:48:26;14.90;99.90
9403;DHT22;4741;49.834;10.740;2023-08-07T14:50:53;15.60;99.90
9403;DHT22;4741;49.834;10.740;2023-08-07T14:53:21;15.20;99.90
9403;DHT22;4741;49.834;10.740;2023-08-07T14:55:48;15.80;99.90
9403;DHT22;4741;49.834;10.740;2023-08-07T14:58:15;15.70;99.90
9403;DHT22;4741;49.834;10.740;2023-08-07T15:00:42;15.50;99.90
9403;DHT22;4741;49.834;10.740;2023-08-07T15:03:08;15.10;99.90
9403;DHT22;4741;49.834;10.740;2023-08-07T15:05:35;15.50;99.90
9403;DHT22;4741;49.834;10.740;2023-08-07T15:08:02;15.50;99.90
9403;DHT22;4741;49.834;10.740;2023-08-07T15:10:29;15.00;99.90
9403;DHT22;4741;49.834;10.740;2023-08-07T15:12:56;16.40;99.90
9403;DHT22;4741;49.834;10.740;2023-08-07T15:15:23;18.10;99.90
9403;DHT22;4741;49.834;10.740;2023-08-07T15:20:17;18.10;99.90
9403;DHT22;4741;49.834;10.740;2023-08-07T15:22:47;17.70;99.90
9403;DHT22;4741;49.834;10.740;2023-08-07T15:25:23;18.60;99.90
9403;DHT22;4741;49.834;10.740;2023-08-07T15:27:52;19.40;99.90
9403;DHT22;4741;49.834;10.740;2023-08-07T15:30:19;20.50;99.90
9403;DHT22;4741;49.834;10.740;2023-08-07T15:32:46;20.50;99.90
9403;DHT22;4741;49.834;10.740;2023-08-07T15:37:40;21.90;99.90
9403;DHT22;4741;49.834;10.740;2023-08-07T15:40:07;21.90;99.90
9403;DHT22;4741;49.834;10.740;2023-08-07T15:42:35;20.60;99.90
9403;DHT22;4741;49.834;10.740;2023-08-07T15:45:01;20.70;99.90
9403;DHT22;4741;49.834;10.740;2023-08-07T15:47:31;21.00;99.90
9403;DHT22;4741;49.834;10.740;2023-08-07T15:49:58;21.30;99.90
9403;DHT22;4741;49.834;10.740;2023-08-07T15:52:24;21.50;99.90
9403;DHT22;4741;49.834;10.740;2023-08-07T15:54:52;20.90;99.90
9403;DHT22;4741;49.834;10.740;2023-08-07T15:57:19;21.10;99.90
9403;DHT22;4741;49.834;10.740;2023-08-07T15:59:45;20.70;99.90
9403;DHT22;4741;49.834;10.740;2023-08-07T16:02:12;20.10;99.90
9403;DHT22;4741;49.834;10.740;2023-08-07T16:04:39;19.00;99.90
9403;DHT22;4741;49.834;10.740;2023-08-07T16:07:06;20.70;99.90
9403;DHT22;4741;49.834;10.740;2023-08-07T16:09:32;21.80;99.90
9403;DHT22;4741;49.834;10.740;2023-08-07T16:11:59;21.30;99.90
9403;DHT22;4741;49.834;10.740;2023-08-07T16:14:26;21.30;99.90
9403;DHT22;4741;49.834;10.740;2023-08-07T16:16:56;20.10;99.90
9403;DHT22;4741;49.834;10.740;2023-08-07T16:19:25;18.50;99.90
9403;DHT22;4741;49.834;10.740;2023-08-07T16:21:56;19.50;99.90
9403;DHT22;4741;49.834;10.740;2023-08-07T16:24:23;19.30;99.90
9403;DHT22;4741;49.834;10.740;2023-08-07T16:29:17;20.90;99.90
9403;DHT22;4741;49.834;10.740;2023-08-07T16:31:44;21.00;99.90
9403;DHT22;4741;49.834;10.740;2023-08-07T16:34:19;21.00;99.90
9403;DHT22;4741;49.834;10.740;2023-08-07T16:36:48;21.60;99.90